sensor_id;sensor_type;location;lat;lon;timestamp;P1;durP1;ratioP1;P2;durP2;ratioP2
41984;SDS011;28319;48.116;10.818;2022-08-11T00:02:28;2.60;;;2.00;;
41984;SDS011;28319;48.116;10.818;2022-08-11T00:05:01;1.80;;;1.70;;
41984;SDS011;28319;48.116;10.818;2022-08-11T00:07:31;2.40;;;1.80;;
41984;SDS011;28319;48.116;10.818;2022-08-11T00:09:59;2.10;;;2.00;;
41984;SDS011;28319;48.116;10.818;2022-08-11T00:12:27;2.22;;;2.13;;
41984;SDS011;28319;48.116;10.818;2022-08-11T00:14:57;1.90;;;1.80;;
41984;SDS011;28319;48.116;10.818;2022-08-11T00:17:26;1.90;;;1.80;;
41984;SDS011;28319;48.116;10.818;2022-08-11T00:19:59;1.90;;;1.80;;
41984;SDS011;28319;48.116;10.818;2022-08-11T00:22:30;2.00;;;1.90;;
41984;SDS011;28319;48.116;10.818;2022-08-11T00:24:59;2.17;;;2.08;;
41984;SDS011;28319;48.116;10.818;2022-08-11T00:27:34;1.90;;;1.80;;
41984;SDS011;28319;48.116;10.818;2022-08-11T00:30:04;1.90;;;1.80;;
41984;SDS011;28319;48.116;10.818;2022-08-11T00:32:33;1.80;;;1.70;;
41984;SDS011;28319;48.116;10.818;2022-08-11T00:35:03;1.80;;;1.70;;
41984;SDS011;28319;48.116;10.818;2022-08-11T00:37:32;1.70;;;1.60;;
41984;SDS011;28319;48.116;10.818;2022-08-11T00:40:00;1.95;;;1.85;;
41984;SDS011;28319;48.116;10.818;2022-08-11T00:42:39;1.80;;;1.70;;
41984;SDS011;28319;48.116;10.818;2022-08-11T00:45:17;2.10;;;1.67;;
41984;SDS011;28319;48.116;10.818;2022-08-11T00:47:55;1.90;;;1.80;;
41984;SDS011;28319;48.116;10.818;2022-08-11T00:50:34;1.80;;;1.70;;
41984;SDS011;28319;48.116;10.818;2022-08-11T00:53:14;2.15;;;1.73;;
41984;SDS011;28319;48.116;10.818;2022-08-11T00:56:10;1.88;;;1.77;;
41984;SDS011;28319;48.116;10.818;2022-08-11T01:02:24;1.90;;;1.80;;
41984;SDS011;28319;48.116;10.818;2022-08-11T01:05:18;1.90;;;1.80;;
41984;SDS011;28319;48.116;10.818;2022-08-11T01:11:00;1.90;;;1.80;;
41984;SDS011;28319;48.116;10.818;2022-08-11T01:13:56;2.15;;;2.00;;
41984;SDS011;28319;48.116;10.818;2022-08-11T01:16:51;1.88;;;1.77;;
41984;SDS011;28319;48.116;10.818;2022-08-11T01:20:09;2.10;;;2.00;;
41984;SDS011;28319;48.116;10.818;2022-08-11T01:23:01;2.47;;;2.10;;
41984;SDS011;28319;48.116;10.818;2022-08-11T01:25:53;1.85;;;1.75;;
41984;SDS011;28319;48.116;10.818;2022-08-11T01:32:02;2.55;;;1.85;;
41984;SDS011;28319;48.116;10.818;2022-08-11T01:40:50;1.80;;;1.70;;
41984;SDS011;28319;48.116;10.818;2022-08-11T01:43:54;2.45;;;2.22;;
41984;SDS011;28319;48.116;10.818;2022-08-11T01:46:55;2.08;;;1.90;;
41984;SDS011;28319;48.116;10.818;2022-08-11T01:50:07;2.10;;;2.00;;
41984;SDS011;28319;48.116;10.818;2022-08-11T01:52:45;2.13;;;1.90;;
41984;SDS011;28319;48.116;10.818;2022-08-11T01:55:25;1.90;;;1.80;;
41984;SDS011;28319;48.116;10.818;2022-08-11T01:58:00;2.20;;;2.10;;
41984;SDS011;28319;48.116;10.818;2022-08-11T02:00:35;1.90;;;1.80;;
41984;SDS011;28319;48.116;10.818;2022-08-11T02:03:14;2.38;;;2.20;;
41984;SDS011;28319;48.116;10.818;2022-08-11T02:05:51;2.70;;;2.35;;
41984;SDS011;28319;48.116;10.818;2022-08-11T02:08:35;2.40;;;1.92;;
41984;SDS011;28319;48.116;10.818;2022-08-11T02:11:14;2.15;;;2.05;;
41984;SDS011;28319;48.116;10.818;2022-08-11T02:13:57;2.92;;;2.20;;
41984;SDS011;28319;48.116;10.818;2022-08-11T02:16:34;2.30;;;2.20;;
41984;SDS011;28319;48.116;10.818;2022-08-11T02:19:19;2.28;;;1.90;;
41984;SDS011;28319;48.116;10.818;2022-08-11T02:22:10;1.92;;;1.83;;
41984;SDS011;28319;48.116;10.818;2022-08-11T02:25:03;1.98;;;1.88;;
41984;SDS011;28319;48.116;10.818;2022-08-11T02:27:35;2.00;;;1.90;;
41984;SDS011;28319;48.116;10.818;2022-08-11T02:30:07;2.10;;;1.90;;
41984;SDS011;28319;48.116;10.818;2022-08-11T02:32:41;2.10;;;2.00;;
41984;SDS011;28319;48.116;10.818;2022-08-11T02:35:34;2.35;;;2.22;;
41984;SDS011;28319;48.116;10.818;2022-08-11T02:38:13;2.20;;;2.00;;
41984;SDS011;28319;48.116;10.818;2022-08-11T02:40:49;2.22;;;2.10;;
41984;SDS011;28319;48.116;10.818;2022-08-11T02:43:34;2.15;;;2.05;;
41984;SDS011;28319;48.116;10.818;2022-08-11T02:46:19;2.40;;;2.20;;
41984;SDS011;28319;48.116;10.818;2022-08-11T02:48:54;2.20;;;2.10;;
41984;SDS011;28319;48.116;10.818;2022-08-11T02:51:58;2.35;;;1.98;;
41984;SDS011;28319;48.116;10.818;2022-08-11T02:54:31;2.85;;;2.65;;
41984;SDS011;28319;48.116;10.818;2022-08-11T02:57:08;2.20;;;2.10;;
41984;SDS011;28319;48.116;10.818;2022-08-11T02:59:46;2.33;;;2.00;;
41984;SDS011;28319;48.116;10.818;2022-08-11T03:02:19;1.85;;;1.75;;
41984;SDS011;28319;48.116;10.818;2022-08-11T03:05:11;2.00;;;1.90;;
41984;SDS011;28319;48.116;10.818;2022-08-11T03:07:50;2.10;;;2.00;;
41984;SDS011;28319;48.116;10.818;2022-08-11T03:10:40;3.13;;;2.08;;
41984;SDS011;28319;48.116;10.818;2022-08-11T03:13:38;2.00;;;1.90;;
41984;SDS011;28319;48.116;10.818;2022-08-11T03:16:27;1.90;;;1.80;;
41984;SDS011;28319;48.116;10.818;2022-08-11T03:19:15;2.55;;;2.40;;
41984;SDS011;28319;48.116;10.818;2022-08-11T03:21:53;3.10;;;2.30;;
41984;SDS011;28319;48.116;10.818;2022-08-11T03:24:28;2.92;;;2.72;;
41984;SDS011;28319;48.116;10.818;2022-08-11T03:27:02;3.05;;;2.80;;
41984;SDS011;28319;48.116;10.818;2022-08-11T03:29:38;2.83;;;2.63;;
41984;SDS011;28319;48.116;10.818;2022-08-11T03:32:18;2.80;;;2.60;;
41984;SDS011;28319;48.116;10.818;2022-08-11T03:34:51;3.15;;;2.60;;
41984;SDS011;28319;48.116;10.818;2022-08-11T03:37:24;2.77;;;2.57;;
41984;SDS011;28319;48.116;10.818;2022-08-11T03:40:18;2.30;;;2.20;;
41984;SDS011;28319;48.116;10.818;2022-08-11T03:43:28;3.23;;;2.70;;
41984;SDS011;28319;48.116;10.818;2022-08-11T03:46:13;2.47;;;2.37;;
41984;SDS011;28319;48.116;10.818;2022-08-11T03:48:48;3.63;;;2.77;;
41984;SDS011;28319;48.116;10.818;2022-08-11T03:51:26;2.70;;;2.50;;
41984;SDS011;28319;48.116;10.818;2022-08-11T03:54:09;3.60;;;2.80;;
41984;SDS011;28319;48.116;10.818;2022-08-11T04:00:14;3.00;;;2.80;;
41984;SDS011;28319;48.116;10.818;2022-08-11T04:06:47;2.90;;;2.70;;
41984;SDS011;28319;48.116;10.818;2022-08-11T04:18:51;4.87;;;2.63;;
41984;SDS011;28319;48.116;10.818;2022-08-11T04:27:52;2.57;;;2.37;;
41984;SDS011;28319;48.116;10.818;2022-08-11T04:31:04;2.80;;;2.60;;
41984;SDS011;28319;48.116;10.818;2022-08-11T04:33:58;2.60;;;2.40;;
41984;SDS011;28319;48.116;10.818;2022-08-11T04:36:53;2.80;;;2.20;;
41984;SDS011;28319;48.116;10.818;2022-08-11T04:40:02;2.20;;;2.10;;
41984;SDS011;28319;48.116;10.818;2022-08-11T04:45:49;2.97;;;2.70;;
41984;SDS011;28319;48.116;10.818;2022-08-11T04:48:35;2.50;;;2.30;;
41984;SDS011;28319;48.116;10.818;2022-08-11T04:51:47;2.67;;;2.50;;
41984;SDS011;28319;48.116;10.818;2022-08-11T04:54:54;3.73;;;2.80;;
41984;SDS011;28319;48.116;10.818;2022-08-11T04:58:00;3.10;;;2.90;;
41984;SDS011;28319;48.116;10.818;2022-08-11T05:00:59;3.73;;;2.77;;
41984;SDS011;28319;48.116;10.818;2022-08-11T05:04:12;2.30;;;2.10;;
41984;SDS011;28319;48.116;10.818;2022-08-11T05:07:42;2.70;;;2.50;;
41984;SDS011;28319;48.116;10.818;2022-08-11T05:10:33;3.00;;;2.80;;
41984;SDS011;28319;48.116;10.818;2022-08-11T05:13:21;5.17;;;3.17;;
41984;SDS011;28319;48.116;10.818;2022-08-11T05:16:10;3.23;;;3.00;;
41984;SDS011;28319;48.116;10.818;2022-08-11T05:19:07;4.23;;;3.10;;
41984;SDS011;28319;48.116;10.818;2022-08-11T05:21:59;3.30;;;3.00;;
41984;SDS011;28319;48.116;10.818;2022-08-11T05:24:46;3.00;;;2.70;;
41984;SDS011;28319;48.116;10.818;2022-08-11T05:27:36;4.00;;;3.60;;
41984;SDS011;28319;48.116;10.818;2022-08-11T05:30:25;3.53;;;3.23;;
41984;SDS011;28319;48.116;10.818;2022-08-11T05:33:19;3.30;;;3.00;;
41984;SDS011;28319;48.116;10.818;2022-08-11T05:36:10;7.80;;;3.60;;
41984;SDS011;28319;48.116;10.818;2022-08-11T05:38:48;8.50;;;3.73;;
41984;SDS011;28319;48.116;10.818;2022-08-11T05:41:37;10.90;;;3.77;;
41984;SDS011;28319;48.116;10.818;2022-08-11T05:44:24;6.57;;;3.30;;
41984;SDS011;28319;48.116;10.818;2022-08-11T05:47:19;11.73;;;3.67;;
41984;SDS011;28319;48.116;10.818;2022-08-11T05:50:06;5.87;;;3.20;;
41984;SDS011;28319;48.116;10.818;2022-08-11T05:52:52;4.03;;;3.03;;
41984;SDS011;28319;48.116;10.818;2022-08-11T05:55:38;3.43;;;3.13;;
41984;SDS011;28319;48.116;10.818;2022-08-11T05:58:23;3.63;;;3.08;;
41984;SDS011;28319;48.116;10.818;2022-08-11T06:00:53;3.30;;;3.00;;
41984;SDS011;28319;48.116;10.818;2022-08-11T06:03:21;3.72;;;3.00;;
41984;SDS011;28319;48.116;10.818;2022-08-11T06:05:52;3.05;;;2.83;;
41984;SDS011;28319;48.116;10.818;2022-08-11T06:08:26;5.55;;;2.92;;
41984;SDS011;28319;48.116;10.818;2022-08-11T06:10:58;3.60;;;2.83;;
41984;SDS011;28319;48.116;10.818;2022-08-11T06:13:26;3.00;;;2.80;;
41984;SDS011;28319;48.116;10.818;2022-08-11T06:15:55;4.05;;;2.50;;
41984;SDS011;28319;48.116;10.818;2022-08-11T06:18:23;3.17;;;2.83;;
41984;SDS011;28319;48.116;10.818;2022-08-11T06:20:52;3.42;;;2.80;;
41984;SDS011;28319;48.116;10.818;2022-08-11T06:23:22;3.83;;;3.00;;
41984;SDS011;28319;48.116;10.818;2022-08-11T06:25:56;3.17;;;2.97;;
41984;SDS011;28319;48.116;10.818;2022-08-11T06:28:27;3.92;;;3.10;;
41984;SDS011;28319;48.116;10.818;2022-08-11T06:30:59;4.65;;;3.28;;
41984;SDS011;28319;48.116;10.818;2022-08-11T06:33:29;5.07;;;3.10;;
41984;SDS011;28319;48.116;10.818;2022-08-11T06:36:01;3.30;;;3.10;;
41984;SDS011;28319;48.116;10.818;2022-08-11T06:38:37;3.83;;;3.45;;
41984;SDS011;28319;48.116;10.818;2022-08-11T06:41:16;4.55;;;2.58;;
41984;SDS011;28319;48.116;10.818;2022-08-11T06:44:10;3.15;;;2.85;;
41984;SDS011;28319;48.116;10.818;2022-08-11T06:46:45;10.52;;;3.22;;
41984;SDS011;28319;48.116;10.818;2022-08-11T06:49:15;3.53;;;3.13;;
41984;SDS011;28319;48.116;10.818;2022-08-11T06:52:02;6.60;;;3.00;;
41984;SDS011;28319;48.116;10.818;2022-08-11T06:54:31;5.97;;;3.17;;
41984;SDS011;28319;48.116;10.818;2022-08-11T06:57:00;4.60;;;3.15;;
41984;SDS011;28319;48.116;10.818;2022-08-11T06:59:46;6.13;;;2.80;;
41984;SDS011;28319;48.116;10.818;2022-08-11T07:02:33;4.38;;;3.45;;
41984;SDS011;28319;48.116;10.818;2022-08-11T07:05:10;3.28;;;2.97;;
41984;SDS011;28319;48.116;10.818;2022-08-11T07:14:46;4.30;;;2.92;;
41984;SDS011;28319;48.116;10.818;2022-08-11T07:17:37;3.65;;;3.17;;
41984;SDS011;28319;48.116;10.818;2022-08-11T07:20:08;5.38;;;2.97;;
41984;SDS011;28319;48.116;10.818;2022-08-11T07:22:56;2.80;;;2.60;;
41984;SDS011;28319;48.116;10.818;2022-08-11T07:25:43;5.20;;;2.70;;
41984;SDS011;28319;48.116;10.818;2022-08-11T07:28:32;4.35;;;3.08;;
41984;SDS011;28319;48.116;10.818;2022-08-11T07:31:20;2.72;;;2.50;;
41984;SDS011;28319;48.116;10.818;2022-08-11T07:33:54;4.15;;;2.70;;
41984;SDS011;28319;48.116;10.818;2022-08-11T07:36:28;2.80;;;2.60;;
41984;SDS011;28319;48.116;10.818;2022-08-11T07:38:56;3.10;;;2.80;;
41984;SDS011;28319;48.116;10.818;2022-08-11T07:41:25;2.88;;;2.50;;
41984;SDS011;28319;48.116;10.818;2022-08-11T07:43:57;3.00;;;2.70;;
41984;SDS011;28319;48.116;10.818;2022-08-11T07:46:33;4.85;;;2.90;;
41984;SDS011;28319;48.116;10.818;2022-08-11T07:49:20;3.33;;;3.03;;
41984;SDS011;28319;48.116;10.818;2022-08-11T07:52:05;5.47;;;3.00;;
41984;SDS011;28319;48.116;10.818;2022-08-11T07:54:50;3.05;;;2.85;;
41984;SDS011;28319;48.116;10.818;2022-08-11T07:57:19;2.80;;;2.60;;
41984;SDS011;28319;48.116;10.818;2022-08-11T08:00:04;3.75;;;2.70;;
41984;SDS011;28319;48.116;10.818;2022-08-11T08:02:50;5.28;;;2.55;;
41984;SDS011;28319;48.116;10.818;2022-08-11T08:05:36;5.13;;;2.83;;
41984;SDS011;28319;48.116;10.818;2022-08-11T08:08:21;3.83;;;2.95;;
41984;SDS011;28319;48.116;10.818;2022-08-11T08:11:06;3.53;;;2.88;;
41984;SDS011;28319;48.116;10.818;2022-08-11T08:13:51;3.20;;;2.90;;
41984;SDS011;28319;48.116;10.818;2022-08-11T08:16:37;3.28;;;2.97;;
41984;SDS011;28319;48.116;10.818;2022-08-11T08:19:22;3.92;;;2.80;;
41984;SDS011;28319;48.116;10.818;2022-08-11T08:21:51;4.43;;;3.13;;
41984;SDS011;28319;48.116;10.818;2022-08-11T08:24:19;4.40;;;2.95;;
41984;SDS011;28319;48.116;10.818;2022-08-11T08:26:47;5.65;;;3.13;;
41984;SDS011;28319;48.116;10.818;2022-08-11T08:29:24;7.53;;;3.03;;
41984;SDS011;28319;48.116;10.818;2022-08-11T08:32:11;3.22;;;2.88;;
41984;SDS011;28319;48.116;10.818;2022-08-11T08:34:40;3.50;;;3.20;;
41984;SDS011;28319;48.116;10.818;2022-08-11T08:37:10;5.68;;;2.97;;
41984;SDS011;28319;48.116;10.818;2022-08-11T08:39:38;3.00;;;2.72;;
41984;SDS011;28319;48.116;10.818;2022-08-11T08:42:06;4.25;;;2.70;;
41984;SDS011;28319;48.116;10.818;2022-08-11T08:44:39;3.88;;;2.88;;
41984;SDS011;28319;48.116;10.818;2022-08-11T08:47:12;5.85;;;2.85;;
41984;SDS011;28319;48.116;10.818;2022-08-11T08:49:44;4.53;;;2.60;;
41984;SDS011;28319;48.116;10.818;2022-08-11T08:52:17;6.07;;;2.70;;
41984;SDS011;28319;48.116;10.818;2022-08-11T08:54:48;2.75;;;2.45;;
41984;SDS011;28319;48.116;10.818;2022-08-11T08:57:20;6.55;;;2.55;;
41984;SDS011;28319;48.116;10.818;2022-08-11T08:59:49;3.13;;;2.80;;
41984;SDS011;28319;48.116;10.818;2022-08-11T09:02:22;2.90;;;2.60;;
41984;SDS011;28319;48.116;10.818;2022-08-11T09:04:51;4.95;;;2.42;;
41984;SDS011;28319;48.116;10.818;2022-08-11T09:07:21;2.78;;;2.58;;
41984;SDS011;28319;48.116;10.818;2022-08-11T09:09:51;4.07;;;2.60;;
41984;SDS011;28319;48.116;10.818;2022-08-11T09:12:20;2.90;;;2.70;;
41984;SDS011;28319;48.116;10.818;2022-08-11T09:14:51;4.68;;;2.40;;
41984;SDS011;28319;48.116;10.818;2022-08-11T09:17:34;3.28;;;2.95;;
41984;SDS011;28319;48.116;10.818;2022-08-11T09:20:05;3.13;;;2.60;;
41984;SDS011;28319;48.116;10.818;2022-08-11T09:22:37;2.92;;;2.72;;
41984;SDS011;28319;48.116;10.818;2022-08-11T09:25:24;3.13;;;2.88;;
41984;SDS011;28319;48.116;10.818;2022-08-11T09:28:10;3.30;;;2.58;;
41984;SDS011;28319;48.116;10.818;2022-08-11T09:30:39;4.65;;;2.63;;
41984;SDS011;28319;48.116;10.818;2022-08-11T09:33:08;3.85;;;2.70;;
41984;SDS011;28319;48.116;10.818;2022-08-11T09:35:37;3.40;;;2.80;;
41984;SDS011;28319;48.116;10.818;2022-08-11T09:38:13;3.20;;;2.90;;
41984;SDS011;28319;48.116;10.818;2022-08-11T09:41:00;2.70;;;2.40;;
41984;SDS011;28319;48.116;10.818;2022-08-11T09:43:29;3.53;;;2.88;;
41984;SDS011;28319;48.116;10.818;2022-08-11T09:46:15;3.40;;;2.50;;
41984;SDS011;28319;48.116;10.818;2022-08-11T09:48:47;2.78;;;2.58;;
41984;SDS011;28319;48.116;10.818;2022-08-11T09:51:17;4.05;;;2.33;;
41984;SDS011;28319;48.116;10.818;2022-08-11T09:53:49;2.92;;;2.58;;
41984;SDS011;28319;48.116;10.818;2022-08-11T09:56:17;5.75;;;2.22;;
41984;SDS011;28319;48.116;10.818;2022-08-11T09:59:05;2.70;;;2.50;;
41984;SDS011;28319;48.116;10.818;2022-08-11T10:01:33;3.45;;;2.72;;
41984;SDS011;28319;48.116;10.818;2022-08-11T10:04:07;5.07;;;2.45;;
41984;SDS011;28319;48.116;10.818;2022-08-11T10:06:40;3.20;;;2.47;;
41984;SDS011;28319;48.116;10.818;2022-08-11T10:09:35;2.50;;;2.30;;
41984;SDS011;28319;48.116;10.818;2022-08-11T10:12:05;2.53;;;2.17;;
41984;SDS011;28319;48.116;10.818;2022-08-11T10:14:38;3.75;;;2.60;;
41984;SDS011;28319;48.116;10.818;2022-08-11T10:17:26;4.85;;;2.50;;
41984;SDS011;28319;48.116;10.818;2022-08-11T10:19:58;3.35;;;2.88;;
41984;SDS011;28319;48.116;10.818;2022-08-11T10:22:29;3.42;;;2.50;;
41984;SDS011;28319;48.116;10.818;2022-08-11T10:25:16;5.15;;;2.50;;
41984;SDS011;28319;48.116;10.818;2022-08-11T10:28:02;4.45;;;2.78;;
41984;SDS011;28319;48.116;10.818;2022-08-11T10:30:32;2.90;;;2.60;;
41984;SDS011;28319;48.116;10.818;2022-08-11T10:33:17;5.05;;;2.80;;
41984;SDS011;28319;48.116;10.818;2022-08-11T10:36:03;4.40;;;2.67;;
41984;SDS011;28319;48.116;10.818;2022-08-11T10:38:32;3.58;;;2.50;;
41984;SDS011;28319;48.116;10.818;2022-08-11T10:41:01;3.58;;;2.60;;
41984;SDS011;28319;48.116;10.818;2022-08-11T10:43:46;3.05;;;2.40;;
41984;SDS011;28319;48.116;10.818;2022-08-11T10:46:13;3.65;;;3.30;;
41984;SDS011;28319;48.116;10.818;2022-08-11T10:48:58;3.03;;;2.60;;
41984;SDS011;28319;48.116;10.818;2022-08-11T10:51:27;2.65;;;2.40;;
41984;SDS011;28319;48.116;10.818;2022-08-11T10:54:13;4.05;;;2.67;;
41984;SDS011;28319;48.116;10.818;2022-08-11T10:56:59;4.63;;;2.72;;
41984;SDS011;28319;48.116;10.818;2022-08-11T10:59:44;2.60;;;2.40;;
41984;SDS011;28319;48.116;10.818;2022-08-11T11:02:13;5.18;;;2.33;;
41984;SDS011;28319;48.116;10.818;2022-08-11T11:04:46;2.88;;;2.33;;
41984;SDS011;28319;48.116;10.818;2022-08-11T11:07:26;2.70;;;2.53;;
41984;SDS011;28319;48.116;10.818;2022-08-11T11:10:02;5.38;;;2.33;;
41984;SDS011;28319;48.116;10.818;2022-08-11T11:12:33;4.93;;;2.50;;
41984;SDS011;28319;48.116;10.818;2022-08-11T11:15:22;2.70;;;2.40;;
41984;SDS011;28319;48.116;10.818;2022-08-11T11:18:10;2.70;;;2.50;;
41984;SDS011;28319;48.116;10.818;2022-08-11T11:20:44;4.55;;;2.50;;
41984;SDS011;28319;48.116;10.818;2022-08-11T11:23:17;2.90;;;2.50;;
41984;SDS011;28319;48.116;10.818;2022-08-11T11:26:05;3.15;;;2.45;;
41984;SDS011;28319;48.116;10.818;2022-08-11T11:28:53;2.95;;;2.20;;
41984;SDS011;28319;48.116;10.818;2022-08-11T11:31:45;2.45;;;2.20;;
41984;SDS011;28319;48.116;10.818;2022-08-11T11:34:22;2.45;;;2.22;;
41984;SDS011;28319;48.116;10.818;2022-08-11T11:37:01;3.45;;;2.20;;
41984;SDS011;28319;48.116;10.818;2022-08-11T11:39:31;5.10;;;2.20;;
41984;SDS011;28319;48.116;10.818;2022-08-11T11:41:59;2.30;;;2.20;;
41984;SDS011;28319;48.116;10.818;2022-08-11T11:44:31;2.40;;;2.20;;
41984;SDS011;28319;48.116;10.818;2022-08-11T11:46:59;5.32;;;2.50;;
41984;SDS011;28319;48.116;10.818;2022-08-11T11:49:28;2.20;;;2.10;;
41984;SDS011;28319;48.116;10.818;2022-08-11T11:51:57;2.50;;;2.30;;
41984;SDS011;28319;48.116;10.818;2022-08-11T11:54:26;3.20;;;2.53;;
41984;SDS011;28319;48.116;10.818;2022-08-11T11:56:55;6.00;;;2.40;;
41984;SDS011;28319;48.116;10.818;2022-08-11T11:59:45;2.10;;;2.00;;
41984;SDS011;28319;48.116;10.818;2022-08-11T12:02:31;6.70;;;2.42;;
41984;SDS011;28319;48.116;10.818;2022-08-11T12:05:00;2.67;;;2.28;;
41984;SDS011;28319;48.116;10.818;2022-08-11T12:07:28;2.10;;;2.00;;
41984;SDS011;28319;48.116;10.818;2022-08-11T12:10:14;2.30;;;2.10;;
41984;SDS011;28319;48.116;10.818;2022-08-11T12:12:44;2.58;;;1.95;;
41984;SDS011;28319;48.116;10.818;2022-08-11T12:15:30;3.92;;;2.22;;
41984;SDS011;28319;48.116;10.818;2022-08-11T12:17:59;2.30;;;1.98;;
41984;SDS011;28319;48.116;10.818;2022-08-11T12:20:27;2.47;;;2.00;;
41984;SDS011;28319;48.116;10.818;2022-08-11T12:22:54;2.03;;;1.92;;
41984;SDS011;28319;48.116;10.818;2022-08-11T12:25:40;2.10;;;1.98;;
41984;SDS011;28319;48.116;10.818;2022-08-11T12:28:38;3.78;;;2.10;;
41984;SDS011;28319;48.116;10.818;2022-08-11T12:31:08;5.50;;;2.10;;
41984;SDS011;28319;48.116;10.818;2022-08-11T12:33:35;2.50;;;2.00;;
41984;SDS011;28319;48.116;10.818;2022-08-11T12:36:05;2.28;;;2.15;;
41984;SDS011;28319;48.116;10.818;2022-08-11T12:38:41;2.30;;;2.10;;
41984;SDS011;28319;48.116;10.818;2022-08-11T12:41:19;2.95;;;2.20;;
41984;SDS011;28319;48.116;10.818;2022-08-11T12:44:04;2.95;;;2.08;;
41984;SDS011;28319;48.116;10.818;2022-08-11T12:46:53;2.25;;;1.95;;
41984;SDS011;28319;48.116;10.818;2022-08-11T12:49:21;4.90;;;2.05;;
41984;SDS011;28319;48.116;10.818;2022-08-11T12:52:08;2.35;;;2.15;;
41984;SDS011;28319;48.116;10.818;2022-08-11T12:54:44;2.30;;;2.10;;
41984;SDS011;28319;48.116;10.818;2022-08-11T12:57:19;3.22;;;1.90;;
41984;SDS011;28319;48.116;10.818;2022-08-11T13:00:09;5.05;;;2.17;;
41984;SDS011;28319;48.116;10.818;2022-08-11T13:02:56;2.25;;;1.92;;
41984;SDS011;28319;48.116;10.818;2022-08-11T13:05:41;3.58;;;2.00;;
41984;SDS011;28319;48.116;10.818;2022-08-11T13:08:08;3.17;;;2.25;;
41984;SDS011;28319;48.116;10.818;2022-08-11T13:10:37;4.38;;;1.95;;
41984;SDS011;28319;48.116;10.818;2022-08-11T13:13:22;2.22;;;2.13;;
41984;SDS011;28319;48.116;10.818;2022-08-11T13:15:50;2.50;;;2.30;;
41984;SDS011;28319;48.116;10.818;2022-08-11T13:18:20;2.47;;;2.00;;
41984;SDS011;28319;48.116;10.818;2022-08-11T13:20:48;4.32;;;2.08;;
41984;SDS011;28319;48.116;10.818;2022-08-11T13:23:17;5.72;;;2.05;;
41984;SDS011;28319;48.116;10.818;2022-08-11T13:25:44;3.00;;;1.95;;
41984;SDS011;28319;48.116;10.818;2022-08-11T13:28:12;4.68;;;2.00;;
41984;SDS011;28319;48.116;10.818;2022-08-11T13:30:42;2.38;;;2.15;;
41984;SDS011;28319;48.116;10.818;2022-08-11T13:33:29;3.50;;;2.20;;
41984;SDS011;28319;48.116;10.818;2022-08-11T13:35:57;3.35;;;2.10;;
41984;SDS011;28319;48.116;10.818;2022-08-11T13:38:26;3.80;;;2.22;;
41984;SDS011;28319;48.116;10.818;2022-08-11T13:40:55;4.80;;;2.22;;
41984;SDS011;28319;48.116;10.818;2022-08-11T13:43:22;2.53;;;1.92;;
41984;SDS011;28319;48.116;10.818;2022-08-11T13:45:50;1.75;;;1.65;;
41984;SDS011;28319;48.116;10.818;2022-08-11T13:48:41;2.50;;;2.30;;
41984;SDS011;28319;48.116;10.818;2022-08-11T13:51:08;2.90;;;2.08;;
41984;SDS011;28319;48.116;10.818;2022-08-11T13:53:54;2.47;;;2.00;;
41984;SDS011;28319;48.116;10.818;2022-08-11T13:56:22;2.22;;;1.95;;
41984;SDS011;28319;48.116;10.818;2022-08-11T13:58:50;4.20;;;2.20;;
41984;SDS011;28319;48.116;10.818;2022-08-11T14:01:19;2.85;;;2.08;;
41984;SDS011;28319;48.116;10.818;2022-08-11T14:03:51;2.00;;;1.90;;
41984;SDS011;28319;48.116;10.818;2022-08-11T14:06:19;2.25;;;2.15;;
41984;SDS011;28319;48.116;10.818;2022-08-11T14:08:48;5.07;;;1.90;;
41984;SDS011;28319;48.116;10.818;2022-08-11T14:11:18;2.35;;;1.85;;
41984;SDS011;28319;48.116;10.818;2022-08-11T14:14:03;2.20;;;2.00;;
41984;SDS011;28319;48.116;10.818;2022-08-11T14:16:36;1.92;;;1.83;;
41984;SDS011;28319;48.116;10.818;2022-08-11T14:19:10;1.90;;;1.80;;
41984;SDS011;28319;48.116;10.818;2022-08-11T14:21:40;3.00;;;2.05;;
41984;SDS011;28319;48.116;10.818;2022-08-11T14:24:26;2.45;;;2.35;;
41984;SDS011;28319;48.116;10.818;2022-08-11T14:26:54;2.20;;;2.10;;
41984;SDS011;28319;48.116;10.818;2022-08-11T14:29:23;3.33;;;1.83;;
41984;SDS011;28319;48.116;10.818;2022-08-11T14:31:53;1.98;;;1.88;;
41984;SDS011;28319;48.116;10.818;2022-08-11T14:34:24;2.00;;;1.90;;
41984;SDS011;28319;48.116;10.818;2022-08-11T14:36:53;3.70;;;2.30;;
41984;SDS011;28319;48.116;10.818;2022-08-11T14:39:23;2.17;;;2.08;;
41984;SDS011;28319;48.116;10.818;2022-08-11T14:41:52;3.75;;;1.90;;
41984;SDS011;28319;48.116;10.818;2022-08-11T14:44:38;3.53;;;2.10;;
41984;SDS011;28319;48.116;10.818;2022-08-11T14:47:26;2.42;;;2.00;;
41984;SDS011;28319;48.116;10.818;2022-08-11T14:49:57;2.33;;;2.13;;
41984;SDS011;28319;48.116;10.818;2022-08-11T14:52:26;5.53;;;1.92;;
41984;SDS011;28319;48.116;10.818;2022-08-11T14:54:56;7.05;;;2.47;;
41984;SDS011;28319;48.116;10.818;2022-08-11T14:57:41;4.75;;;2.20;;
41984;SDS011;28319;48.116;10.818;2022-08-11T15:00:09;2.75;;;1.98;;
41984;SDS011;28319;48.116;10.818;2022-08-11T15:02:42;2.58;;;2.00;;
41984;SDS011;28319;48.116;10.818;2022-08-11T15:05:30;3.47;;;2.13;;
41984;SDS011;28319;48.116;10.818;2022-08-11T15:07:58;3.97;;;2.10;;
41984;SDS011;28319;48.116;10.818;2022-08-11T15:10:26;5.35;;;1.95;;
41984;SDS011;28319;48.116;10.818;2022-08-11T15:12:54;2.65;;;2.08;;
41984;SDS011;28319;48.116;10.818;2022-08-11T15:15:22;2.75;;;2.10;;
41984;SDS011;28319;48.116;10.818;2022-08-11T15:18:10;2.03;;;1.90;;
41984;SDS011;28319;48.116;10.818;2022-08-11T15:20:40;3.25;;;2.20;;
41984;SDS011;28319;48.116;10.818;2022-08-11T15:23:25;2.25;;;1.90;;
41984;SDS011;28319;48.116;10.818;2022-08-11T15:26:11;2.05;;;1.85;;
41984;SDS011;28319;48.116;10.818;2022-08-11T15:28:41;3.60;;;2.28;;
41984;SDS011;28319;48.116;10.818;2022-08-11T15:31:28;2.30;;;1.70;;
41984;SDS011;28319;48.116;10.818;2022-08-11T15:34:16;5.72;;;1.98;;
41984;SDS011;28319;48.116;10.818;2022-08-11T15:37:05;2.58;;;2.20;;
41984;SDS011;28319;48.116;10.818;2022-08-11T15:39:56;4.45;;;2.20;;
41984;SDS011;28319;48.116;10.818;2022-08-11T15:42:47;3.40;;;1.90;;
41984;SDS011;28319;48.116;10.818;2022-08-11T15:45:39;2.33;;;2.00;;
41984;SDS011;28319;48.116;10.818;2022-08-11T15:51:09;6.65;;;2.40;;
41984;SDS011;28319;48.116;10.818;2022-08-11T15:53:40;5.47;;;1.83;;
41984;SDS011;28319;48.116;10.818;2022-08-11T15:56:11;2.38;;;2.20;;
41984;SDS011;28319;48.116;10.818;2022-08-11T15:58:40;2.85;;;2.20;;
41984;SDS011;28319;48.116;10.818;2022-08-11T16:01:28;3.08;;;2.47;;
41984;SDS011;28319;48.116;10.818;2022-08-11T16:04:15;2.95;;;2.00;;
41984;SDS011;28319;48.116;10.818;2022-08-11T16:06:49;2.38;;;2.22;;
41984;SDS011;28319;48.116;10.818;2022-08-11T16:09:22;2.80;;;2.47;;
41984;SDS011;28319;48.116;10.818;2022-08-11T16:11:53;3.97;;;2.92;;
41984;SDS011;28319;48.116;10.818;2022-08-11T16:14:24;2.38;;;2.28;;
41984;SDS011;28319;48.116;10.818;2022-08-11T16:17:11;1.80;;;1.58;;
41984;SDS011;28319;48.116;10.818;2022-08-11T16:19:41;2.53;;;1.95;;
41984;SDS011;28319;48.116;10.818;2022-08-11T16:22:10;3.78;;;2.30;;
41984;SDS011;28319;48.116;10.818;2022-08-11T16:24:43;2.47;;;2.03;;
41984;SDS011;28319;48.116;10.818;2022-08-11T16:27:12;1.83;;;1.65;;
41984;SDS011;28319;48.116;10.818;2022-08-11T16:29:44;3.58;;;1.80;;
41984;SDS011;28319;48.116;10.818;2022-08-11T16:32:14;1.83;;;1.73;;
41984;SDS011;28319;48.116;10.818;2022-08-11T16:34:45;2.28;;;2.17;;